Time;durP1;ratioP1;P1;durP2;ratioP2;P2;SDS_P1;SDS_P2;PMS_P1;PMS_P2;Temp;Humidity;BMP_temperature;BMP_pressure;BME280_temperature;BME280_humidity;BME280_pressure;Samples;Min_cycle;Max_cycle;Signal;HPM_P1;HPM_P2
2020/12/27 00:02:22;;;;;;;4.50;2.20;;;;;;;3.57;93.44;99991.31;5167009;28;20034;-81
2020/12/27 00:04:52;;;;;;;6.13;2.50;;;;;;;3.58;93.09;99988.72;5165187;28;20042;-81
2020/12/27 00:07:22;;;;;;;6.03;2.50;;;;;;;3.61;93.11;99970.59;5164457;28;20057;-82
2020/12/27 00:09:52;;;;;;;6.07;2.60;;;;;;;3.58;92.53;99968.06;5162908;28;20030;-80
2020/12/27 00:12:23;;;;;;;4.78;2.25;;;;;;;3.63;92.83;99961.06;5152050;28;20153;-80
2020/12/27 00:14:53;;;;;;;4.30;2.40;;;;;;;3.52;93.16;99950.06;5147234;28;20059;-81
2020/12/27 00:17:23;;;;;;;4.05;2.38;;;;;;;3.58;93.94;99948.22;5149245;28;20042;-81
2020/12/27 00:19:53;;;;;;;5.07;2.47;;;;;;;3.48;93.70;99930.34;5167225;28;20065;-82
2020/12/27 00:22:24;;;;;;;3.85;2.30;;;;;;;3.53;93.85;99918.19;5149812;28;20643;-80
2020/12/27 00:24:54;;;;;;;5.72;2.55;;;;;;;3.47;93.85;99920.03;5165579;28;20112;-80
2020/12/27 00:27:24;;;;;;;5.18;2.40;;;;;;;3.50;93.68;99907.91;5147237;28;20019;-81
2020/12/27 00:29:55;;;;;;;5.15;2.35;;;;;;;3.51;93.73;99898.44;5139599;28;20031;-81
2020/12/27 00:32:29;;;;;;;4.53;2.35;;;;;;;3.51;93.54;99906.19;5140524;28;20026;-80
2020/12/27 00:34:59;;;;;;;4.32;2.30;;;;;;;3.62;91.98;99892.19;5140458;28;20026;-82
2020/12/27 00:37:31;;;;;;;4.78;2.40;;;;;;;3.63;92.63;99886.16;5139732;28;20465;-81
2020/12/27 00:40:02;;;;;;;4.72;2.22;;;;;;;3.61;92.63;99875.84;5140288;28;20035;-80
2020/12/27 00:42:33;;;;;;;6.43;2.28;;;;;;;3.56;92.63;99879.38;5136473;28;20568;-79
2020/12/27 00:45:04;;;;;;;4.38;2.28;;;;;;;3.49;92.51;99859.72;5145739;28;20034;-81
2020/12/27 00:47:34;;;;;;;4.28;2.42;;;;;;;3.55;92.29;99858.78;5144358;28;20023;-81
2020/12/27 00:50:04;;;;;;;3.97;1.90;;;;;;;3.53;93.09;99855.38;5140597;28;20425;-81
2020/12/27 00:52:35;;;;;;;5.85;2.30;;;;;;;3.56;93.26;99848.38;5138852;28;20037;-79
2020/12/27 00:55:05;;;;;;;4.28;2.17;;;;;;;3.51;92.40;99844.22;5140199;28;20036;-81
2020/12/27 00:57:35;;;;;;;8.98;2.28;;;;;;;3.49;92.70;99838.19;5140415;28;20027;-81
2020/12/27 01:00:05;;;;;;;4.68;2.28;;;;;;;3.44;93.06;99835.72;5139656;28;20042;-78
2020/12/27 01:02:36;;;;;;;4.70;2.28;;;;;;;3.42;93.52;99822.00;5158371;28;20037;-79
2020/12/27 01:05:06;;;;;;;4.68;2.50;;;;;;;3.37;93.39;99817.81;5159993;28;20711;-80
2020/12/27 01:07:37;;;;;;;4.65;2.50;;;;;;;3.34;93.11;99812.69;5148637;28;20049;-81
2020/12/27 01:10:07;;;;;;;7.30;2.38;;;;;;;3.30;93.09;99818.78;5140219;28;20101;-80
2020/12/27 01:12:37;;;;;;;5.18;2.40;;;;;;;3.30;93.15;99788.66;5140672;28;20039;-81
2020/12/27 01:15:09;;;;;;;3.85;2.08;;;;;;;3.36;93.21;99790.28;5139793;28;20030;-81
2020/12/27 01:17:39;;;;;;;5.50;2.00;;;;;;;3.32;92.97;99780.88;5139761;28;20501;-79
2020/12/27 01:20:09;;;;;;;4.38;2.15;;;;;;;3.25;92.86;99767.25;5140823;28;20045;-80
2020/12/27 01:22:39;;;;;;;4.60;2.25;;;;;;;3.18;93.74;99765.66;5139907;28;20030;-80
2020/12/27 01:25:10;;;;;;;5.60;2.25;;;;;;;3.21;93.56;99757.00;5140732;28;20026;-81
2020/12/27 01:27:40;;;;;;;5.07;2.35;;;;;;;3.29;92.55;99752.53;5140215;28;20031;-82
2020/12/27 01:30:10;;;;;;;6.15;2.40;;;;;;;3.20;93.00;99742.41;5143514;28;20031;-82
2020/12/27 01:32:41;;;;;;;3.78;2.17;;;;;;;3.27;93.40;99728.50;5142909;28;20023;-81
2020/12/27 01:35:12;;;;;;;6.78;2.50;;;;;;;3.22;93.11;99707.91;5143653;28;20696;-81
2020/12/27 01:37:42;;;;;;;5.70;2.40;;;;;;;3.24;93.35;99692.41;5138953;28;20030;-81
2020/12/27 01:40:12;;;;;;;3.20;2.03;;;;;;;3.26;93.00;99670.88;5123970;28;20026;-80
2020/12/27 01:42:51;;;;;;;6.65;2.30;;;;;;;3.13;93.92;99663.38;5142827;28;20084;-80
2020/12/27 01:45:22;;;;;;;3.83;2.13;;;;;;;3.20;93.14;99660.63;5143575;28;20019;-81
2020/12/27 01:47:53;;;;;;;5.75;2.33;;;;;;;3.18;93.93;99656.41;5154031;28;20026;-81
2020/12/27 01:50:24;;;;;;;4.78;2.30;;;;;;;3.11;93.85;99640.19;5146877;28;20034;-81
2020/12/27 01:52:54;;;;;;;5.47;2.50;;;;;;;3.14;93.46;99636.69;5163938;28;20034;-81
2020/12/27 01:55:31;;;;;;;6.88;2.40;;;;;;;3.12;94.17;99625.56;5163901;28;20120;-81
2020/12/27 01:58:17;;;;;;;7.13;2.13;;;;;;;3.16;93.89;99629.78;5156587;28;20405;-81
2020/12/27 02:00:47;;;;;;;4.00;2.20;;;;;;;3.15;93.31;99617.75;5143531;28;20106;-81
2020/12/27 02:03:18;;;;;;;6.35;2.53;;;;;;;3.19;93.38;99621.97;5143493;28;20557;-80
2020/12/27 02:05:51;;;;;;;5.72;2.30;;;;;;;3.16;93.41;99609.97;5135669;28;20026;-81
2020/12/27 02:08:22;;;;;;;3.75;2.00;;;;;;;3.21;92.69;99607.31;5146340;28;20378;-81
2020/12/27 02:10:52;;;;;;;4.40;2.35;;;;;;;3.20;93.31;99598.69;5146939;28;20034;-82
2020/12/27 02:13:22;;;;;;;5.45;2.53;;;;;;;3.20;92.64;99603.84;5143781;28;20027;-80
2020/12/27 02:15:53;;;;;;;5.97;2.22;;;;;;;3.23;92.83;99605.53;5143448;28;20470;-81
2020/12/27 02:18:23;;;;;;;4.57;2.28;;;;;;;3.17;93.17;99598.75;5143519;28;20037;-79
2020/12/27 02:20:53;;;;;;;6.47;2.33;;;;;;;3.18;92.91;99597.88;5143180;28;20118;-80
2020/12/27 02:23:23;;;;;;;3.95;2.38;;;;;;;3.19;93.07;99596.16;5141632;28;20030;-82
2020/12/27 02:25:54;;;;;;;4.45;2.33;;;;;;;3.18;92.84;99586.72;5154514;28;20034;-80
2020/12/27 02:28:24;;;;;;;4.28;2.22;;;;;;;3.18;91.84;99579.81;5158339;28;20030;-80
2020/12/27 02:30:54;;;;;;;6.53;2.53;;;;;;;3.18;92.84;99590.13;5142637;28;20026;-81
2020/12/27 02:33:24;;;;;;;6.40;2.72;;;;;;;3.20;92.81;99582.38;5143036;28;20026;-80
2020/12/27 02:35:55;;;;;;;6.45;2.50;;;;;;;3.18;92.76;99577.22;5141610;28;20037;-79
2020/12/27 02:38:25;;;;;;;4.60;2.40;;;;;;;3.13;93.01;99560.16;5150727;28;20046;-82
2020/12/27 02:40:56;;;;;;;6.53;2.47;;;;;;;3.09;93.38;99569.72;5155205;28;20026;-81
2020/12/27 02:43:26;;;;;;;4.88;2.35;;;;;;;3.08;93.76;99554.25;5157896;28;20027;-82
2020/12/27 02:45:56;;;;;;;4.30;2.60;;;;;;;3.05;93.88;99551.75;5162436;28;20026;-81
2020/12/27 02:48:27;;;;;;;5.53;2.80;;;;;;;3.01;93.55;99544.97;5162916;28;20608;-82
2020/12/27 02:50:57;;;;;;;3.97;2.33;;;;;;;3.06;92.76;99538.78;5162548;28;20181;-80
2020/12/27 02:53:27;;;;;;;5.65;2.67;;;;;;;3.09;93.17;99545.63;5162360;28;20010;-81
2020/12/27 02:55:58;;;;;;;4.15;2.33;;;;;;;3.05;93.13;99533.69;5162177;28;20477;-81
2020/12/27 02:58:28;;;;;;;4.63;2.50;;;;;;;3.06;93.13;99517.31;5164401;28;20101;-82
2020/12/27 03:00:58;;;;;;;5.53;2.40;;;;;;;3.01;93.44;99503.66;5165471;28;20090;-81
2020/12/27 03:03:28;;;;;;;5.43;2.85;;;;;;;3.07;92.99;99513.84;5163230;28;20034;-78
2020/12/27 03:05:59;;;;;;;4.82;2.45;;;;;;;3.05;92.30;99494.97;5162841;28;20046;-79
2020/12/27 03:08:29;;;;;;;4.80;2.22;;;;;;;3.10;92.37;99493.13;5162385;28;20042;-79
2020/12/27 03:10:59;;;;;;;5.50;2.17;;;;;;;3.09;91.68;99491.44;5136342;28;20100;-79
2020/12/27 03:13:31;;;;;;;4.22;2.20;;;;;;;3.12;91.54;99479.31;5159315;28;20023;-79
2020/12/27 03:16:04;;;;;;;7.03;2.40;;;;;;;3.11;92.21;99481.91;5162208;28;20018;-81
2020/12/27 03:18:34;;;;;;;4.82;2.38;;;;;;;3.16;91.71;99465.44;5161933;28;20504;-81
2020/12/27 03:21:05;;;;;;;3.97;2.22;;;;;;;3.13;91.79;99452.63;5161614;28;20037;-81
2020/12/27 03:23:35;;;;;;;5.75;2.45;;;;;;;3.12;91.78;99450.06;5161422;28;20547;-80
2020/12/27 03:26:05;;;;;;;4.65;2.33;;;;;;;3.10;91.77;99449.25;5161942;28;20022;-81
2020/12/27 03:28:35;;;;;;;4.13;2.10;;;;;;;3.16;91.68;99441.38;5161667;28;20057;-81
2020/12/27 03:31:06;;;;;;;5.53;2.15;;;;;;;3.12;91.33;99429.41;5160655;28;20098;-81
2020/12/27 03:33:36;;;;;;;4.10;2.15;;;;;;;3.11;91.45;99438.03;5142640;28;20031;-81
2020/12/27 03:36:06;;;;;;;5.07;1.90;;;;;;;3.07;91.45;99428.69;5161164;28;20030;-81
2020/12/27 03:38:37;;;;;;;2.70;1.90;;;;;;;3.17;90.96;99427.59;5143140;28;20059;-81
2020/12/27 03:41:07;;;;;;;3.55;1.88;;;;;;;3.19;91.13;99413.75;5153321;28;20038;-80
2020/12/27 03:43:37;;;;;;;5.95;2.35;;;;;;;3.13;91.14;99402.72;5152322;28;20448;-79
2020/12/27 03:46:08;;;;;;;3.53;1.95;;;;;;;3.17;91.03;99396.63;5153236;28;20026;-81
2020/12/27 03:48:38;;;;;;;2.90;1.90;;;;;;;3.07;91.36;99393.44;5154136;28;20644;-79
2020/12/27 03:51:08;;;;;;;3.63;1.90;;;;;;;3.04;91.15;99384.91;5159574;28;20022;-81
2020/12/27 03:53:39;;;;;;;3.17;1.70;;;;;;;3.10;90.67;99372.69;5161248;28;20054;-81
2020/12/27 03:56:09;;;;;;;3.85;1.83;;;;;;;3.07;90.74;99362.47;5161570;28;20052;-82
2020/12/27 03:58:39;;;;;;;3.78;2.08;;;;;;;3.16;90.72;99358.81;5161525;28;20687;-81
2020/12/27 04:01:10;;;;;;;2.53;1.55;;;;;;;3.18;90.54;99359.59;5160692;28;20537;-81
2020/12/27 04:03:40;;;;;;;3.10;1.98;;;;;;;3.19;89.77;99338.06;5158502;28;20026;-81
2020/12/27 04:06:10;;;;;;;4.18;1.80;;;;;;;3.23;89.82;99325.03;5153194;28;20023;-81
2020/12/27 04:08:40;;;;;;;5.70;1.80;;;;;;;3.21;90.37;99313.06;5153851;28;20041;-81
2020/12/27 04:11:11;;;;;;;2.65;1.75;;;;;;;3.17;90.50;99321.78;5139654;28;20034;-80
2020/12/27 04:13:41;;;;;;;2.58;1.55;;;;;;;3.09;89.98;99306.50;5148371;28;20029;-81
2020/12/27 04:16:11;;;;;;;2.80;1.67;;;;;;;3.16;90.25;99296.88;5141329;28;20662;-81
2020/12/27 04:18:42;;;;;;;3.65;1.70;;;;;;;3.24;90.62;99284.59;5140562;28;20026;-80
2020/12/27 04:21:13;;;;;;;2.88;1.30;;;;;;;3.12;90.84;99278.03;5141361;28;20029;-81
2020/12/27 04:23:43;;;;;;;2.67;1.63;;;;;;;3.18;90.21;99269.28;5140168;28;20031;-81
2020/12/27 04:26:14;;;;;;;3.00;1.40;;;;;;;3.16;89.99;99261.56;5141040;28;20046;-81
2020/12/27 04:28:45;;;;;;;4.68;1.58;;;;;;;3.19;90.29;99266.63;5120213;28;20023;-80
2020/12/27 04:31:20;;;;;;;5.40;1.40;;;;;;;3.17;89.96;99258.09;5140943;28;20034;-81
2020/12/27 04:33:52;;;;;;;3.35;1.40;;;;;;;3.23;89.92;99257.09;5139391;28;20029;-80
2020/12/27 04:36:24;;;;;;;2.58;1.40;;;;;;;3.16;91.05;99233.19;5140690;28;20093;-80
2020/12/27 04:38:54;;;;;;;3.63;1.60;;;;;;;3.11;91.52;99231.59;5139325;28;20027;-79
2020/12/27 04:41:25;;;;;;;3.15;1.33;;;;;;;3.09;92.00;99228.22;5140995;28;20536;-80
2020/12/27 04:43:56;;;;;;;3.15;1.30;;;;;;;3.08;92.08;99206.75;5140632;28;20019;-81
2020/12/27 04:46:27;;;;;;;3.08;1.60;;;;;;;3.11;91.71;99205.81;5140369;28;20023;-81
2020/12/27 04:48:57;;;;;;;2.53;1.27;;;;;;;3.03;92.97;99193.13;5139742;28;20649;-81
2020/12/27 04:51:29;;;;;;;2.50;1.20;;;;;;;3.03;92.06;99189.69;5140432;28;20019;-81
2020/12/27 04:53:59;;;;;;;2.85;1.23;;;;;;;3.11;91.54;99180.00;5140351;28;20070;-81
2020/12/27 04:56:30;;;;;;;4.05;1.30;;;;;;;3.11;91.57;99185.16;5140702;28;20515;-81
2020/12/27 04:59:00;;;;;;;3.85;1.13;;;;;;;3.10;90.93;99168.00;5140143;28;20394;-82
2020/12/27 05:01:30;;;;;;;2.33;1.17;;;;;;;3.09;90.56;99161.13;5142116;28;20668;-82
2020/12/27 05:04:00;;;;;;;1.77;1.10;;;;;;;3.12;90.47;99145.56;5142578;28;20343;-80
2020/12/27 05:06:31;;;;;;;3.47;1.10;;;;;;;3.11;91.33;99152.47;5127477;28;20026;-81
2020/12/27 05:09:02;;;;;;;1.90;0.98;;;;;;;3.03;91.17;99156.16;5143980;28;20098;-80
2020/12/27 05:11:33;;;;;;;3.10;1.20;;;;;;;3.01;91.37;99147.63;5143841;28;20034;-80
2020/12/27 05:14:04;;;;;;;2.03;1.10;;;;;;;3.01;90.83;99132.16;5143999;28;20027;-80
2020/12/27 05:16:35;;;;;;;2.03;0.90;;;;;;;2.97;91.43;99133.09;5144629;28;20062;-80
2020/12/27 05:19:06;;;;;;;2.63;0.93;;;;;;;3.01;90.34;99126.97;5144636;28;20043;-81
2020/12/27 05:21:39;;;;;;;3.30;1.20;;;;;;;3.08;89.84;99126.75;5144730;28;20033;-81
2020/12/27 05:24:12;;;;;;;1.67;0.95;;;;;;;3.04;89.60;99117.41;5126332;28;20400;-80
2020/12/27 05:26:42;;;;;;;3.03;1.17;;;;;;;3.08;88.75;99110.41;5144061;28;20073;-81
2020/12/27 05:29:29;;;;;;;2.83;1.10;;;;;;;3.06;89.30;99099.31;5143412;28;20050;-81
2020/12/27 05:32:00;;;;;;;2.67;1.00;;;;;;;2.99;90.41;99084.91;5144471;28;20025;-81
2020/12/27 05:34:31;;;;;;;2.00;1.00;;;;;;;3.00;90.79;99068.53;5144204;28;20062;-81
2020/12/27 05:37:04;;;;;;;3.55;1.00;;;;;;;2.92;91.22;99060.16;5145057;28;20050;-78
2020/12/27 05:39:34;;;;;;;2.67;1.25;;;;;;;2.95;91.47;99054.91;5143232;28;20033;-79
2020/12/27 05:42:07;;;;;;;2.28;0.98;;;;;;;2.93;91.43;99057.56;5144990;28;20018;-81
2020/12/27 05:44:37;;;;;;;1.77;0.90;;;;;;;2.89;90.24;99060.25;5143525;28;20022;-81
2020/12/27 05:47:08;;;;;;;3.67;1.10;;;;;;;2.86;91.03;99052.63;5144630;28;20042;-82
2020/12/27 05:49:38;;;;;;;1.55;0.90;;;;;;;2.94;91.07;99064.41;5143603;28;20026;-80
2020/12/27 05:52:14;;;;;;;2.53;1.10;;;;;;;2.96;90.74;99064.34;5143303;28;20019;-80
2020/12/27 05:54:47;;;;;;;3.28;0.93;;;;;;;2.97;90.63;99058.28;5143160;28;20122;-78
2020/12/27 05:57:21;;;;;;;2.25;0.80;;;;;;;3.00;90.29;99064.19;5143813;28;20031;-82
2020/12/27 05:59:54;;;;;;;3.00;1.10;;;;;;;3.04;91.10;99057.22;5143142;28;20038;-79
2020/12/27 06:02:43;;;;;;;3.25;1.00;;;;;;;2.97;90.39;99056.56;5142602;28;20041;-81
2020/12/27 06:05:25;;;;;;;1.75;1.00;;;;;;;2.91;89.71;99038.69;5143454;28;20098;-81
2020/12/27 06:08:20;;;;;;;1.30;0.70;;;;;;;2.98;90.16;99039.34;5143228;28;20027;-81
2020/12/27 06:10:56;;;;;;;3.05;1.00;;;;;;;2.99;89.89;99033.31;5143859;28;20027;-81
2020/12/27 06:13:36;;;;;;;1.40;0.70;;;;;;;3.12;88.46;99032.88;5143454;28;20034;-80
2020/12/27 06:16:11;;;;;;;1.73;0.90;;;;;;;3.26;87.55;99019.53;5142818;28;20497;-81
2020/12/27 06:19:02;;;;;;;2.00;0.80;;;;;;;3.35;86.43;99014.09;5143239;28;20034;-81
2020/12/27 06:21:40;;;;;;;2.80;0.90;;;;;;;3.38;88.10;99001.09;5143428;28;20058;-81
2020/12/27 06:24:13;;;;;;;1.83;0.80;;;;;;;3.40;87.84;98999.31;5143090;28;20026;-81
2020/12/27 06:26:44;;;;;;;1.67;0.70;;;;;;;3.35;88.43;98993.47;5142147;28;20027;-79
2020/12/27 06:29:14;;;;;;;1.40;0.70;;;;;;;3.28;88.71;98972.16;5142346;28;20062;-82
2020/12/27 06:31:50;;;;;;;1.63;0.77;;;;;;;3.32;87.87;98965.13;5143437;28;20063;-81
2020/12/27 06:34:21;;;;;;;;;;;;;;;3.27;88.93;98962.72;5143807;28;20686;-81
2020/12/27 06:36:51;;;;;;;1.70;0.77;;;;;;;3.32;88.93;98947.06;5142431;28;19910;-80
2020/12/27 06:39:24;;;;;;;2.17;0.70;;;;;;;3.45;88.26;98940.63;5142251;28;20022;-80
2020/12/27 06:42:04;;;;;;;2.13;0.70;;;;;;;3.51;87.78;98924.94;5147106;28;20125;-83
2020/12/27 06:44:39;;;;;;;1.95;0.80;;;;;;;3.56;88.16;98941.13;5147635;28;20038;-81
2020/12/27 06:47:11;;;;;;;2.17;0.70;;;;;;;3.59;87.92;98923.78;5148335;28;20030;-81
2020/12/27 06:49:41;;;;;;;1.50;0.70;;;;;;;3.61;88.27;98930.56;5147965;28;20031;-81
2020/12/27 06:52:22;;;;;;;1.90;0.70;;;;;;;3.55;88.13;98904.09;5131961;28;20065;-80
2020/12/27 06:54:54;;;;;;;1.27;0.70;;;;;;;3.65;88.12;98893.41;5148792;28;20046;-83
2020/12/27 06:57:44;;;;;;;1.27;0.65;;;;;;;3.62;88.38;98878.03;5129857;28;20026;-81
2020/12/27 07:00:23;;;;;;;1.42;0.60;;;;;;;3.73;87.86;98888.81;5140888;28;20046;-82
2020/12/27 07:03:06;;;;;;;1.80;0.75;;;;;;;3.77;87.31;98874.91;5129857;28;20062;-81
2020/12/27 07:05:38;;;;;;;1.73;0.85;;;;;;;3.77;87.83;98856.81;5148842;28;20026;-80
2020/12/27 07:08:11;;;;;;;1.02;0.60;;;;;;;3.71;87.81;98857.06;5129415;28;20074;-82
2020/12/27 07:10:44;;;;;;;2.03;0.60;;;;;;;3.76;87.52;98862.88;5147338;28;20043;-79
2020/12/27 07:13:16;;;;;;;0.70;0.52;;;;;;;3.79;87.64;98856.78;5145421;28;20037;-81
2020/12/27 07:15:46;;;;;;;1.08;0.60;;;;;;;3.76;87.78;98839.63;5144775;28;20037;-82
2020/12/27 07:18:29;;;;;;;1.88;0.57;;;;;;;3.78;87.34;98839.59;5148061;28;20078;-82
2020/12/27 07:20:59;;;;;;;2.65;0.63;;;;;;;3.74;88.39;98825.94;5145407;28;20410;-82
2020/12/27 07:23:31;;;;;;;1.65;0.65;;;;;;;3.76;87.64;98821.56;5145826;28;20042;-81
2020/12/27 07:26:03;;;;;;;1.40;0.65;;;;;;;3.77;87.36;98818.06;5146699;28;20034;-83
2020/12/27 07:28:33;;;;;;;2.08;0.98;;;;;;;3.80;87.89;98812.78;5145851;28;20018;-83
2020/12/27 07:31:05;;;;;;;3.83;0.68;;;;;;;3.75;87.76;98788.06;5146245;28;20094;-80
2020/12/27 07:33:37;;;;;;;1.80;0.63;;;;;;;3.77;87.57;98781.91;5146564;28;20023;-82
2020/12/27 07:36:09;;;;;;;1.83;0.80;;;;;;;3.79;88.75;98768.94;5147901;28;20034;-83
2020/12/27 07:38:40;;;;;;;3.60;0.70;;;;;;;3.81;88.09;98764.56;5147204;28;20568;-82
2020/12/27 07:41:10;;;;;;;1.53;0.73;;;;;;;3.81;88.30;98767.16;5148771;28;20069;-81
2020/12/27 07:43:40;;;;;;;1.58;0.70;;;;;;;3.87;87.93;98741.94;5149123;28;20306;-81
2020/12/27 07:46:14;;;;;;;0.98;0.60;;;;;;;3.83;87.99;98766.22;5132675;28;20023;-82
2020/12/27 07:48:44;;;;;;;2.53;0.80;;;;;;;3.90;87.66;98746.13;5150693;28;20603;-81
2020/12/27 07:51:17;;;;;;;2.40;0.80;;;;;;;3.87;88.02;98746.25;5150601;28;20031;-82
2020/12/27 07:53:49;;;;;;;2.00;0.60;;;;;;;3.87;88.77;98739.34;5147539;28;20050;-81
2020/12/27 07:56:21;;;;;;;2.78;0.75;;;;;;;3.94;87.95;98721.88;5143682;28;20052;-82
2020/12/27 07:58:52;;;;;;;2.25;0.80;;;;;;;3.98;87.88;98708.75;5143139;28;20031;-81
2020/12/27 08:01:26;;;;;;;2.70;0.80;;;;;;;4.00;88.16;98706.97;5125972;28;20035;-81
2020/12/27 08:03:58;;;;;;;1.63;0.73;;;;;;;4.07;87.96;98708.41;5143444;28;20035;-79
2020/12/27 08:06:31;;;;;;;1.08;0.63;;;;;;;4.03;88.63;98691.34;5150786;28;20026;-80
2020/12/27 08:09:10;;;;;;;1.95;0.70;;;;;;;4.04;87.93;98698.19;5147977;28;20031;-81
2020/12/27 08:11:44;;;;;;;1.50;0.70;;;;;;;4.04;87.93;98681.84;5147406;28;20394;-83
2020/12/27 08:14:14;;;;;;;1.77;0.80;;;;;;;4.02;87.86;98676.75;5146223;28;20090;-82
2020/12/27 08:16:46;;;;;;;2.25;0.65;;;;;;;4.07;87.84;98666.22;5152161;28;20061;-82
2020/12/27 08:19:20;;;;;;;1.95;0.77;;;;;;;4.12;87.03;98648.78;5126951;28;20477;-82
2020/12/27 08:21:59;;;;;;;2.35;0.80;;;;;;;4.09;87.63;98648.94;5145346;28;20386;-82
2020/12/27 08:24:29;;;;;;;2.33;0.70;;;;;;;4.16;87.55;98651.16;5145952;28;20031;-81
2020/12/27 08:27:00;;;;;;;2.47;0.90;;;;;;;4.07;88.19;98666.22;5129590;28;20023;-80
2020/12/27 08:29:30;;;;;;;1.10;0.60;;;;;;;4.19;87.51;98669.16;5145298;28;20486;-82
2020/12/27 08:32:05;;;;;;;1.85;0.77;;;;;;;4.14;87.97;98658.16;5143736;28;20026;-82
2020/12/27 08:34:35;;;;;;;2.30;0.97;;;;;;;4.23;87.29;98657.78;5144656;28;20105;-79
2020/12/27 08:37:05;;;;;;;4.95;0.70;;;;;;;4.16;88.25;98660.69;5159771;28;20355;-79
2020/12/27 08:39:40;;;;;;;1.63;0.70;;;;;;;4.15;88.07;98649.50;5158641;28;20034;-79
2020/12/27 08:42:17;;;;;;;1.80;0.70;;;;;;;4.16;88.32;98635.66;5150170;28;20023;-82
2020/12/27 08:44:58;;;;;;;1.15;0.77;;;;;;;4.21;87.73;98628.59;5145906;28;20039;-79
2020/12/27 08:47:46;;;;;;;2.72;0.73;;;;;;;4.33;86.51;98615.13;5161186;28;20485;-79
2020/12/27 08:50:22;;;;;;;2.28;1.10;;;;;;;4.27;87.42;98617.97;5164693;28;20026;-81
2020/12/27 08:52:55;;;;;;;1.27;0.77;;;;;;;4.34;87.29;98618.56;5164485;28;20026;-78
2020/12/27 08:55:29;;;;;;;1.73;0.80;;;;;;;4.21;88.58;98589.81;5164474;28;20042;-82
2020/12/27 08:58:00;;;;;;;1.50;0.80;;;;;;;4.26;88.26;98589.63;5134214;28;20383;-82
2020/12/27 09:00:34;;;;;;;2.47;1.00;;;;;;;4.28;88.80;98593.81;5160939;28;20041;-78
2020/12/27 09:03:05;;;;;;;2.25;1.02;;;;;;;4.23;88.45;98595.75;5144236;28;20696;-82
2020/12/27 09:05:36;;;;;;;3.58;1.10;;;;;;;4.21;88.53;98588.97;5160634;28;20049;-81
2020/12/27 09:08:19;;;;;;;1.40;0.80;;;;;;;4.21;88.47;98594.97;5147214;28;20057;-82
2020/12/27 09:11:01;;;;;;;2.88;1.23;;;;;;;4.21;89.18;98597.56;5148128;28;20023;-82
2020/12/27 09:13:40;;;;;;;2.67;1.10;;;;;;;4.20;88.63;98585.56;5155890;28;20058;-81
2020/12/27 09:16:10;;;;;;;2.40;1.20;;;;;;;4.24;88.44;98587.09;5144004;28;20085;-80
2020/12/27 09:18:42;;;;;;;3.03;1.45;;;;;;;4.15;89.48;98587.47;5143897;28;20043;-81
2020/12/27 09:21:12;;;;;;;3.30;1.30;;;;;;;4.16;89.86;98583.16;5144698;28;20031;-79
2020/12/27 09:23:43;;;;;;;4.80;1.48;;;;;;;4.13;90.02;98578.13;5127434;28;20026;-81
2020/12/27 09:26:13;;;;;;;3.70;1.50;;;;;;;4.11;89.85;98560.06;5145122;28;20026;-81
2020/12/27 09:28:44;;;;;;;2.97;1.27;;;;;;;4.16;89.58;98560.72;5143687;28;20069;-81
2020/12/27 09:31:14;;;;;;;2.88;1.50;;;;;;;4.12;90.70;98556.59;5157555;28;20114;-82
2020/12/27 09:33:47;;;;;;;2.92;1.42;;;;;;;4.16;90.19;98562.47;5145032;28;20022;-81
2020/12/27 09:36:17;;;;;;;3.70;1.80;;;;;;;4.15;90.17;98559.03;5159102;28;20909;-80
2020/12/27 09:38:48;;;;;;;2.22;1.20;;;;;;;4.18;90.04;98548.59;5161536;28;20041;-81
2020/12/27 09:41:20;;;;;;;3.83;1.52;;;;;;;4.21;89.91;98553.63;5162176;28;20457;-80
2020/12/27 09:43:53;;;;;;;3.72;1.50;;;;;;;4.24;91.27;98556.06;5163069;28;20173;-82
2020/12/27 09:46:41;;;;;;;3.03;1.63;;;;;;;4.28;89.84;98542.09;5163807;28;20026;-82
2020/12/27 09:49:32;;;;;;;2.38;1.42;;;;;;;4.31;89.72;98523.88;5141994;28;20553;-82
2020/12/27 09:52:06;;;;;;;4.32;1.48;;;;;;;4.34;89.38;98518.59;5143899;28;20050;-78
2020/12/27 09:54:44;;;;;;;3.20;1.48;;;;;;;4.41;89.51;98519.13;5142624;28;20025;-80
2020/12/27 09:57:22;;;;;;;2.78;1.65;;;;;;;4.41;90.69;98512.25;5147926;28;20026;-82
2020/12/27 09:59:53;;;;;;;2.35;1.45;;;;;;;4.45;89.96;98512.94;5157752;28;20018;-81
2020/12/27 10:02:24;;;;;;;2.67;1.40;;;;;;;4.44;89.75;98511.28;5148558;28;20042;-82
2020/12/27 10:04:54;;;;;;;3.17;1.40;;;;;;;4.50;89.70;98509.22;5142009;28;20042;-79
2020/12/27 10:07:25;;;;;;;4.60;1.63;;;;;;;4.53;89.57;98498.78;5148025;28;20034;-82
2020/12/27 10:09:55;;;;;;;3.28;1.25;;;;;;;4.56;89.68;98501.22;5149288;28;20101;-79
2020/12/27 10:12:25;;;;;;;5.32;1.60;;;;;;;4.55;90.28;98489.19;5164779;28;20037;-80
2020/12/27 10:14:55;;;;;;;2.80;1.50;;;;;;;4.58;90.16;98477.84;5171074;28;20034;-81
2020/12/27 10:17:26;;;;;;;2.55;1.58;;;;;;;4.63;88.12;98471.56;5171514;28;20018;-82
2020/12/27 10:19:58;;;;;;;4.63;1.63;;;;;;;4.66;88.79;98466.25;5169530;28;20133;-82
2020/12/27 10:22:28;;;;;;;3.03;1.42;;;;;;;4.65;88.71;98476.69;5157676;28;20029;-82
2020/12/27 10:24:59;;;;;;;3.92;1.55;;;;;;;4.67;88.68;98472.28;5145913;28;20105;-80
2020/12/27 10:27:32;;;;;;;2.58;1.40;;;;;;;4.72;87.84;98467.72;5134135;28;20057;-80
2020/12/27 10:30:04;;;;;;;2.40;1.30;;;;;;;4.77;88.88;98464.03;5146856;28;20025;-82
2020/12/27 10:32:35;;;;;;;2.42;1.42;;;;;;;4.76;88.87;98444.25;5148235;28;20030;-82
2020/12/27 10:35:05;;;;;;;2.60;1.20;;;;;;;4.79;89.38;98433.75;5129863;28;20043;-81
2020/12/27 10:37:35;;;;;;;4.43;1.60;;;;;;;4.79;89.48;98444.09;5146475;28;20050;-82
2020/12/27 10:40:06;;;;;;;2.65;1.20;;;;;;;4.83;88.97;98443.03;5146984;28;20085;-80
2020/12/27 10:42:36;;;;;;;3.35;1.40;;;;;;;4.81;88.47;98431.09;5146846;28;20031;-81
2020/12/27 10:45:06;;;;;;;6.07;1.50;;;;;;;4.81;87.82;98434.50;5146570;28;20540;-79
2020/12/27 10:47:36;;;;;;;2.50;1.20;;;;;;;4.87;88.20;98429.06;5137806;28;20022;-80
2020/12/27 10:50:07;;;;;;;2.97;1.33;;;;;;;4.90;88.47;98415.97;5161749;28;20168;-80
2020/12/27 10:52:37;;;;;;;3.17;1.17;;;;;;;4.86;88.68;98396.34;5126854;28;20027;-80
2020/12/27 10:55:07;;;;;;;4.50;1.40;;;;;;;4.88;89.33;98399.69;5127329;28;20621;-82
2020/12/27 10:57:40;;;;;;;3.58;1.60;;;;;;;4.96;89.53;98384.63;5154935;28;20038;-81
2020/12/27 11:00:10;;;;;;;3.63;1.70;;;;;;;4.93;89.55;98381.34;5163632;28;20023;-81
2020/12/27 11:02:41;;;;;;;3.22;1.40;;;;;;;4.89;90.08;98365.16;5168444;28;20025;-80
2020/12/27 11:05:11;;;;;;;3.85;1.30;;;;;;;4.91;90.17;98349.53;5165876;28;20037;-79
2020/12/27 11:07:41;;;;;;;3.10;1.50;;;;;;;4.90;90.60;98345.28;5146705;28;20026;-81
2020/12/27 11:10:12;;;;;;;2.25;1.27;;;;;;;4.92;89.81;98328.78;5143512;28;20034;-82
2020/12/27 11:12:42;;;;;;;3.00;1.48;;;;;;;5.00;90.14;98333.56;5133557;28;20037;-81
2020/12/27 11:15:14;;;;;;;3.15;1.40;;;;;;;5.05;91.25;98323.81;5147641;28;20034;-81
2020/12/27 11:17:44;;;;;;;2.85;1.42;;;;;;;4.94;90.81;98315.78;5148124;28;20030;-81
2020/12/27 11:20:15;;;;;;;2.55;1.30;;;;;;;4.99;90.75;98309.44;5152110;28;20057;-81
2020/12/27 11:22:45;;;;;;;2.47;1.38;;;;;;;4.96;90.42;98295.81;5164452;28;20079;-78
2020/12/27 11:25:33;;;;;;;3.83;1.30;;;;;;;5.01;89.54;98284.31;5147785;28;20025;-78
2020/12/27 11:28:04;;;;;;;2.17;1.10;;;;;;;5.02;90.28;98285.16;5149878;28;20034;-79
2020/12/27 11:30:35;;;;;;;2.33;1.20;;;;;;;5.05;89.75;98275.50;5132333;28;20109;-78
2020/12/27 11:33:05;;;;;;;2.08;1.30;;;;;;;5.04;90.74;98272.97;5150122;28;20029;-81
2020/12/27 11:35:35;;;;;;;2.17;1.25;;;;;;;5.04;89.75;98268.66;5161652;28;20082;-81
2020/12/27 11:38:07;;;;;;;2.15;1.20;;;;;;;5.09;90.59;98264.06;5134947;28;20031;-81
2020/12/27 11:40:38;;;;;;;2.83;1.30;;;;;;;5.14;89.09;98246.56;5124622;28;20604;-80
2020/12/27 11:43:08;;;;;;;2.53;1.30;;;;;;;5.15;90.38;98248.22;5149325;28;20042;-80
2020/12/27 11:45:38;;;;;;;1.95;1.00;;;;;;;5.15;90.42;98247.41;5162056;28;20034;-80
2020/12/27 11:48:09;;;;;;;1.95;1.17;;;;;;;5.16;89.53;98223.19;5140756;28;20023;-80
2020/12/27 11:50:39;;;;;;;2.03;1.10;;;;;;;5.24;88.81;98226.19;5158475;28;20038;-80
2020/12/27 11:53:09;;;;;;;2.33;1.30;;;;;;;5.31;88.57;98228.41;5161740;28;20037;-80
2020/12/27 11:55:39;;;;;;;2.47;0.80;;;;;;;5.33;90.21;98216.19;5162509;28;20058;-80
2020/12/27 11:58:10;;;;;;;2.70;1.00;;;;;;;5.27;88.79;98206.19;5161100;28;20026;-80
2020/12/27 12:00:40;;;;;;;3.10;1.05;;;;;;;5.33;87.84;98179.13;5157875;28;20692;-80
2020/12/27 12:03:10;;;;;;;2.33;1.00;;;;;;;5.29;89.45;98181.03;5123612;28;20018;-80
2020/12/27 12:05:40;;;;;;;2.78;1.50;;;;;;;4.99;91.22;98177.47;5142273;28;20107;-80